Time;durP1;ratioP1;P1;durP2;ratioP2;P2;SDS_P1;SDS_P2;PMS_P1;PMS_P2;Temp;Humidity;BMP_temperature;BMP_pressure;BME280_temperature;BME280_humidity;BME280_pressure;Samples;Min_cycle;Max_cycle;Signal;HPM_P1;HPM_P2
2022/08/17 00:00:54;;;;;;;3.63;3.30;;;;;;;20.05;100.00;100263.66;5055836;28;20223;-72
2022/08/17 00:03:22;;;;;;;3.73;3.00;;;;;;;20.03;100.00;100253.19;5047960;28;20563;-72
2022/08/17 00:05:51;;;;;;;3.33;3.00;;;;;;;20.07;100.00;100263.53;5048029;28;20722;-72
2022/08/17 00:08:21;;;;;;;5.63;3.00;;;;;;;20.08;100.00;100259.94;5048961;28;20558;-72
2022/08/17 00:10:48;;;;;;;3.87;3.20;;;;;;;20.11;100.00;100257.94;5048825;28;20227;-72
2022/08/17 00:13:19;;;;;;;4.07;3.37;;;;;;;20.14;100.00;100256.84;5049096;28;20191;-71
2022/08/17 00:15:48;;;;;;;4.07;3.20;;;;;;;20.17;100.00;100257.47;5046847;28;20217;-72
2022/08/17 00:18:15;;;;;;;3.43;2.97;;;;;;;20.17;100.00;100256.63;5045793;28;20199;-70
2022/08/17 00:20:41;;;;;;;3.23;2.93;;;;;;;20.15;100.00;100263.84;5048302;28;20223;-71
2022/08/17 00:23:11;;;;;;;3.27;2.97;;;;;;;20.12;100.00;100261.41;5048791;28;20221;-72
2022/08/17 00:25:38;;;;;;;3.20;2.90;;;;;;;20.12;100.00;100256.97;5048582;28;20191;-71
2022/08/17 00:28:04;;;;;;;3.83;3.20;;;;;;;20.13;100.00;100258.66;5046897;28;20210;-71
2022/08/17 00:30:31;;;;;;;3.80;3.10;;;;;;;20.17;100.00;100257.47;5048117;28;20222;-69
2022/08/17 00:32:59;;;;;;;3.20;2.80;;;;;;;20.19;100.00;100260.00;5048115;28;20191;-71
2022/08/17 00:35:27;;;;;;;4.00;3.20;;;;;;;20.20;100.00;100259.06;5049823;28;20197;-72
2022/08/17 00:37:55;;;;;;;3.93;3.10;;;;;;;20.24;100.00;100260.53;5048586;28;20199;-71
2022/08/17 00:40:22;;;;;;;5.40;3.20;;;;;;;20.21;100.00;100253.66;5047970;28;20321;-71
2022/08/17 00:42:49;;;;;;;3.90;3.00;;;;;;;20.19;100.00;100252.94;5046994;28;20195;-70
2022/08/17 00:45:19;;;;;;;3.97;3.33;;;;;;;20.18;100.00;100245.94;5045760;28;20202;-70
2022/08/17 00:47:46;;;;;;;3.97;3.30;;;;;;;20.13;100.00;100263.09;5046141;28;20207;-71
2022/08/17 00:50:17;;;;;;;3.30;2.87;;;;;;;20.12;100.00;100256.97;5040825;28;20219;-70
2022/08/17 00:52:51;;;;;;;3.43;2.87;;;;;;;20.12;100.00;100250.81;5045977;28;20195;-70
2022/08/17 00:55:18;;;;;;;3.53;3.20;;;;;;;20.15;100.00;100254.09;5047114;28;20268;-70
2022/08/17 00:57:50;;;;;;;3.90;3.40;;;;;;;20.14;100.00;100246.25;5046315;28;20206;-70
2022/08/17 01:00:25;;;;;;;4.30;3.77;;;;;;;20.16;100.00;100257.59;5039294;28;20728;-70
2022/08/17 01:02:56;;;;;;;6.23;3.40;;;;;;;20.13;100.00;100257.81;5039257;28;20209;-70
2022/08/17 01:05:28;;;;;;;4.73;3.13;;;;;;;20.13;100.00;100253.38;5046640;28;20229;-70
2022/08/17 01:07:56;;;;;;;4.67;3.20;;;;;;;20.15;100.00;100258.53;5045327;28;20206;-70
2022/08/17 01:10:27;;;;;;;3.57;3.27;;;;;;;20.13;100.00;100248.06;5046849;28;20230;-70
2022/08/17 01:12:53;;;;;;;5.33;3.50;;;;;;;20.11;100.00;100257.94;5045554;28;20643;-70
2022/08/17 01:15:20;;;;;;;4.40;2.90;;;;;;;20.10;100.00;100253.56;5046512;28;20199;-70
2022/08/17 01:17:47;;;;;;;3.80;3.40;;;;;;;20.09;100.00;100259.84;5043756;28;20200;-70
2022/08/17 01:20:15;;;;;;;3.57;3.10;;;;;;;20.10;100.00;100264.16;5046363;28;20223;-69
2022/08/17 01:22:43;;;;;;;4.10;3.10;;;;;;;20.11;100.00;100265.03;5044820;28;20210;-70
2022/08/17 01:25:11;;;;;;;6.00;3.40;;;;;;;20.11;100.00;100260.56;5036419;28;20203;-70
2022/08/17 01:27:39;;;;;;;4.10;3.23;;;;;;;20.07;100.00;100252.94;5043797;28;20205;-70
2022/08/17 01:30:09;;;;;;;4.60;3.30;;;;;;;20.05;100.00;100255.69;5045432;28;20230;-70
2022/08/17 01:32:35;;;;;;;3.23;2.93;;;;;;;20.02;100.00;100259.44;5045109;28;20206;-70
2022/08/17 01:35:03;;;;;;;4.57;3.80;;;;;;;20.01;100.00;100255.06;5047378;28;20198;-70
2022/08/17 01:37:31;;;;;;;5.13;3.43;;;;;;;19.99;100.00;100261.44;5041558;28;20664;-70
2022/08/17 01:40:04;;;;;;;4.50;3.60;;;;;;;19.99;100.00;100269.38;5043726;28;20605;-70
2022/08/17 01:42:36;;;;;;;3.53;3.10;;;;;;;20.00;100.00;100260.50;5042217;28;20219;-70
2022/08/17 01:45:07;;;;;;;4.47;3.43;;;;;;;20.00;100.00;100268.44;5046441;28;20199;-70
2022/08/17 01:47:34;;;;;;;3.90;3.57;;;;;;;19.96;100.00;100265.13;5044359;28;20531;-70
2022/08/17 01:50:06;;;;;;;3.40;3.10;;;;;;;19.98;100.00;100259.75;5046065;28;20226;-70
2022/08/17 01:52:33;;;;;;;3.47;3.10;;;;;;;19.96;100.00;100264.31;5041956;28;20230;-70
2022/08/17 01:55:01;;;;;;;3.47;3.13;;;;;;;19.96;100.00;100264.31;5046378;28;20656;-70
2022/08/17 01:57:27;;;;;;;3.70;3.27;;;;;;;19.89;100.00;100269.19;5046105;28;20218;-70
2022/08/17 01:59:54;;;;;;;3.90;3.50;;;;;;;19.81;100.00;100266.25;5050548;28;20711;-70
2022/08/17 02:02:20;;;;;;;4.83;3.67;;;;;;;19.80;100.00;100269.84;5049946;28;20204;-70
2022/08/17 02:04:47;;;;;;;3.37;3.07;;;;;;;19.78;100.00;100269.09;5048903;28;20199;-70
2022/08/17 02:07:13;;;;;;;3.47;3.17;;;;;;;19.77;100.00;100267.41;5049075;28;20237;-70
2022/08/17 02:09:39;;;;;;;4.80;3.60;;;;;;;19.77;100.00;100267.41;5052432;28;20230;-70
2022/08/17 02:12:08;;;;;;;4.07;3.60;;;;;;;19.72;100.00;100259.78;5047870;28;20319;-70
2022/08/17 02:14:34;;;;;;;3.80;3.30;;;;;;;19.69;100.00;100270.56;5051382;28;20840;-70
2022/08/17 02:17:00;;;;;;;4.57;4.07;;;;;;;19.65;100.00;100261.16;5050953;28;20200;-70
2022/08/17 02:19:27;;;;;;;3.70;3.30;;;;;;;19.61;100.00;100264.94;5051385;28;20223;-70
2022/08/17 02:21:54;;;;;;;4.90;3.50;;;;;;;19.57;100.00;100255.56;5051508;28;20565;-70
2022/08/17 02:24:24;;;;;;;4.33;3.70;;;;;;;19.55;100.00;100260.94;5048911;28;20206;-70
2022/08/17 02:26:50;;;;;;;4.43;3.50;;;;;;;19.52;100.00;100263.78;5051323;28;20203;-69
2022/08/17 02:29:18;;;;;;;4.10;3.30;;;;;;;19.51;100.00;100261.25;5059386;28;20207;-70
2022/08/17 02:31:45;;;;;;;3.90;3.33;;;;;;;19.49;100.00;100262.22;5053660;28;20254;-68
2022/08/17 02:34:12;;;;;;;3.60;3.30;;;;;;;19.48;100.00;100267.59;5052015;28;20590;-69
2022/08/17 02:36:39;;;;;;;4.40;3.50;;;;;;;19.47;100.00;100261.50;5052912;28;20659;-69
2022/08/17 02:39:10;;;;;;;3.90;3.50;;;;;;;19.46;100.00;100261.59;5050817;28;20218;-69
2022/08/17 02:41:36;;;;;;;4.03;3.50;;;;;;;19.40;100.00;100262.00;5046339;28;20187;-69
2022/08/17 02:44:04;;;;;;;5.50;3.40;;;;;;;19.35;100.00;100254.41;5047526;28;20207;-69
2022/08/17 02:46:32;;;;;;;5.13;3.50;;;;;;;19.33;100.00;100260.72;5047090;28;20245;-69
2022/08/17 02:48:59;;;;;;;5.00;3.43;;;;;;;19.33;100.00;100255.44;5049344;28;20202;-69
2022/08/17 02:51:26;;;;;;;3.97;3.57;;;;;;;19.30;100.00;100246.78;5048980;28;20713;-69
2022/08/17 02:53:52;;;;;;;4.27;3.60;;;;;;;19.26;100.00;100247.09;5049744;28;20210;-70
2022/08/17 02:56:19;;;;;;;5.17;4.17;;;;;;;19.26;100.00;100257.66;5046690;28;20206;-69
2022/08/17 02:58:46;;;;;;;3.97;3.57;;;;;;;19.22;100.00;100250.91;5046160;28;20559;-69
2022/08/17 03:01:12;;;;;;;5.20;3.90;;;;;;;19.17;100.00;100263.56;5046360;28;20268;-69
2022/08/17 03:03:40;;;;;;;3.73;3.37;;;;;;;19.15;100.00;100257.56;5050033;28;20219;-71
2022/08/17 03:06:07;;;;;;;5.10;3.80;;;;;;;19.09;100.00;100257.00;5045112;28;20188;-70
2022/08/17 03:08:36;;;;;;;5.13;3.47;;;;;;;19.06;100.00;100264.31;5048925;28;20196;-70
2022/08/17 03:11:02;;;;;;;4.30;3.60;;;;;;;19.01;100.00;100261.97;5048250;28;20211;-70
2022/08/17 03:13:29;;;;;;;4.20;3.70;;;;;;;18.96;100.00;100268.50;5049731;28;20257;-70
2022/08/17 03:15:56;;;;;;;3.60;3.30;;;;;;;18.91;100.00;100274.13;5043612;28;20203;-70
2022/08/17 03:18:24;;;;;;;3.87;3.47;;;;;;;18.96;100.00;100269.38;5048992;28;20203;-70
2022/08/17 03:20:52;;;;;;;5.73;4.17;;;;;;;18.86;100.00;100271.75;5046364;28;20219;-69
2022/08/17 03:23:18;;;;;;;6.03;3.70;;;;;;;18.81;100.00;100268.56;5048215;28;20203;-70
2022/08/17 03:25:45;;;;;;;4.83;3.87;;;;;;;18.78;100.00;100270.53;5048355;28;20203;-70
2022/08/17 03:28:12;;;;;;;4.60;3.87;;;;;;;18.70;100.00;100279.00;5055657;28;20199;-70
2022/08/17 03:30:39;;;;;;;5.43;4.17;;;;;;;18.64;100.00;100277.56;5047761;28;20215;-70
2022/08/17 03:33:08;;;;;;;5.33;3.80;;;;;;;18.61;100.00;100277.78;5049260;28;20203;-70
2022/08/17 03:35:36;;;;;;;4.70;3.47;;;;;;;18.60;100.00;100275.25;5049515;28;20207;-70
2022/08/17 03:38:05;;;;;;;4.40;4.00;;;;;;;18.57;100.00;100273.63;5046103;28;20200;-69
2022/08/17 03:40:31;;;;;;;4.80;4.30;;;;;;;18.56;100.00;100266.69;5046052;28;20605;-69
2022/08/17 03:43:04;;;;;;;4.40;3.80;;;;;;;18.48;100.00;100263.69;5045335;28;20207;-69
2022/08/17 03:56:42;;;;;;;4.47;3.73;;;;;;;18.34;100.00;100264.56;5046013;28;20214;-69
2022/08/17 03:59:09;;;;;;;4.27;3.87;;;;;;;18.32;100.00;100261.19;5048136;28;21054;-69
2022/08/17 04:01:36;;;;;;;4.60;3.80;;;;;;;18.26;100.00;100264.25;5047980;28;20205;-70
2022/08/17 04:04:02;;;;;;;5.20;3.80;;;;;;;18.21;100.00;100253.97;5045436;28;20202;-69
2022/08/17 04:06:29;;;;;;;4.37;3.77;;;;;;;18.19;100.00;100262.91;5047649;28;20198;-69
2022/08/17 04:08:57;;;;;;;4.70;3.77;;;;;;;18.19;100.00;100258.50;5042940;28;20659;-69
2022/08/17 04:11:23;;;;;;;5.27;4.10;;;;;;;18.21;100.00;100261.88;5052974;28;20679;-70
2022/08/17 04:13:50;;;;;;;5.13;4.03;;;;;;;18.24;100.00;100268.75;5044489;28;20667;-69
2022/08/17 04:16:16;;;;;;;4.40;4.00;;;;;;;18.26;100.00;100265.06;5049241;28;20203;-69
2022/08/17 04:18:42;;;;;;;4.53;4.03;;;;;;;18.23;100.00;100260.00;5044791;28;20234;-70
2022/08/17 04:21:09;;;;;;;5.53;4.00;;;;;;;18.24;100.00;100266.09;5045295;28;20227;-69
2022/08/17 04:23:36;;;;;;;4.37;3.67;;;;;;;18.26;100.00;100264.25;5045113;28;20199;-70
2022/08/17 04:26:04;;;;;;;5.43;3.97;;;;;;;18.28;100.00;100265.81;5046672;28;20246;-69
2022/08/17 04:28:30;;;;;;;5.17;4.30;;;;;;;18.24;100.00;100264.34;5041625;28;20204;-69
2022/08/17 04:30:57;;;;;;;4.40;3.93;;;;;;;18.32;100.00;100266.47;5057658;28;20211;-69
2022/08/17 04:33:25;;;;;;;7.40;4.30;;;;;;;18.38;100.00;100271.38;5046834;28;20209;-69
2022/08/17 04:35:53;;;;;;;7.30;4.87;;;;;;;18.37;100.00;100268.81;5047646;28;20214;-69
2022/08/17 04:38:23;;;;;;;5.10;4.00;;;;;;;18.43;100.00;100263.13;5048184;28;20199;-69
2022/08/17 04:43:39;;;;;;;5.13;4.13;;;;;;;18.55;100.00;100278.19;5053669;28;20210;-69
2022/08/17 04:46:09;;;;;;;7.13;4.37;;;;;;;18.66;100.00;100278.34;5049649;28;20641;-70
2022/08/17 04:48:38;;;;;;;8.87;4.50;;;;;;;18.71;100.00;100270.09;5045143;28;20226;-70
2022/08/17 04:51:08;;;;;;;5.67;3.90;;;;;;;18.79;100.00;100275.72;5042372;28;20214;-70
2022/08/17 04:53:35;;;;;;;7.70;4.30;;;;;;;18.86;100.00;100274.41;5047703;28;20203;-69
2022/08/17 04:56:02;;;;;;;4.43;3.73;;;;;;;18.92;100.00;100279.25;5047337;28;20190;-70
2022/08/17 04:58:29;;;;;;;6.47;4.07;;;;;;;19.01;100.00;100284.91;5046877;28;20206;-70
2022/08/17 05:00:57;;;;;;;7.70;4.27;;;;;;;19.06;100.00;100282.78;5048792;28;20230;-70
2022/08/17 05:03:24;;;;;;;5.80;4.17;;;;;;;19.09;100.00;100288.72;5048798;28;20188;-70
2022/08/17 05:05:50;;;;;;;3.93;3.53;;;;;;;19.15;100.00;100294.53;5043338;28;20206;-70
2022/08/17 05:08:18;;;;;;;5.43;4.17;;;;;;;19.18;100.00;100295.19;5039722;28;20253;-70
2022/08/17 05:10:46;;;;;;;4.93;4.10;;;;;;;19.19;100.00;100298.66;5047055;28;20216;-70
2022/08/17 05:13:15;;;;;;;5.97;4.73;;;;;;;19.23;100.00;100298.38;5046618;28;20641;-70
2022/08/17 05:15:43;;;;;;;5.63;4.33;;;;;;;19.28;100.00;100295.41;5045988;28;20233;-70
2022/08/17 05:18:11;;;;;;;5.20;4.70;;;;;;;19.30;100.00;100302.28;5047039;28;20207;-70
2022/08/17 05:20:40;;;;;;;5.80;4.60;;;;;;;19.40;100.00;100310.44;5044457;28;20255;-70
2022/08/17 05:23:15;;;;;;;5.73;4.30;;;;;;;19.45;100.00;100308.34;5046146;28;20196;-70
2022/08/17 05:25:45;;;;;;;8.97;4.40;;;;;;;19.55;100.00;100297.13;5039764;28;20218;-70
2022/08/17 05:28:12;;;;;;;9.03;4.80;;;;;;;19.62;100.00;100308.97;5041597;28;20623;-70
2022/08/17 05:30:40;;;;;;;5.30;4.80;;;;;;;19.73;100.00;100309.06;5047160;28;20219;-70
2022/08/17 05:33:10;;;;;;;5.63;4.77;;;;;;;19.86;100.00;100312.59;5047985;28;20207;-70
2022/08/17 05:35:43;;;;;;;4.97;4.50;;;;;;;19.98;100.00;100302.06;5050525;28;20207;-70
2022/08/17 05:38:10;;;;;;;6.90;4.80;;;;;;;20.10;100.00;100308.31;5050420;28;20195;-70
2022/08/17 05:40:37;;;;;;;6.30;5.00;;;;;;;20.28;100.00;100307.00;5050114;28;20238;-71
2022/08/17 05:43:06;;;;;;;7.10;5.20;;;;;;;20.42;100.00;100306.84;5046020;28;20198;-70
2022/08/17 05:45:33;;;;;;;4.67;4.13;;;;;;;20.57;100.00;100306.69;5046618;28;20206;-70
2022/08/17 05:48:00;;;;;;;7.97;5.60;;;;;;;20.70;100.00;100311.97;5052118;28;20558;-70
2022/08/17 05:50:41;;;;;;;6.00;5.30;;;;;;;20.87;100.00;100322.16;5054012;28;20708;-70
2022/08/17 05:53:17;;;;;;;7.30;5.40;;;;;;;21.06;100.00;100313.69;5050523;28;20191;-70
2022/08/17 05:55:52;;;;;;;6.67;4.70;;;;;;;21.24;100.00;100313.25;5050745;28;20226;-70
2022/08/17 05:58:25;;;;;;;6.30;5.60;;;;;;;21.37;100.00;100320.16;5045249;28;20218;-71
2022/08/17 06:01:02;;;;;;;7.07;5.63;;;;;;;21.55;100.00;100323.25;5047075;28;20223;-70
2022/08/17 06:03:39;;;;;;;5.47;4.83;;;;;;;21.73;100.00;100323.63;5048179;28;20201;-70
2022/08/17 06:06:24;;;;;;;7.33;5.77;;;;;;;21.90;100.00;100326.78;5044621;28;20202;-70
2022/08/17 06:09:00;;;;;;;5.93;5.10;;;;;;;22.07;100.00;100325.44;5046271;28;20206;-70
2022/08/17 06:11:32;;;;;;;6.73;5.33;;;;;;;22.25;100.00;100326.63;5044144;28;20206;-70
2022/08/17 06:14:09;;;;;;;9.70;5.67;;;;;;;22.42;100.00;100341.22;5048784;28;20274;-70
2022/08/17 06:16:41;;;;;;;5.93;4.85;;;;;;;22.65;97.57;100347.34;5046357;28;20203;-70
2022/08/17 06:19:13;;;;;;;7.35;5.35;;;;;;;22.84;96.41;100346.69;5047757;28;20214;-70
2022/08/17 06:21:44;;;;;;;6.80;5.35;;;;;;;23.03;92.27;100361.13;5041990;28;20681;-70
2022/08/17 06:24:27;;;;;;;5.68;5.07;;;;;;;23.22;93.25;100365.78;5044373;28;20204;-70
2022/08/17 06:26:55;;;;;;;5.80;5.20;;;;;;;23.39;88.31;100365.22;5045061;28;20249;-70
2022/08/17 06:29:36;;;;;;;6.40;5.05;;;;;;;23.58;92.54;100358.34;5046171;28;21581;-71
2022/08/17 06:32:03;;;;;;;7.55;5.32;;;;;;;23.73;88.27;100369.50;5043528;28;20199;-70
2022/08/17 06:34:32;;;;;;;6.32;4.88;;;;;;;23.96;81.39;100381.69;5045460;28;20199;-71
2022/08/17 06:37:06;;;;;;;6.03;5.25;;;;;;;24.15;77.37;100380.06;5046302;28;20199;-71
2022/08/17 06:42:17;;;;;;;5.90;5.30;;;;;;;24.52;72.97;100385.69;5028612;28;20224;-70
2022/08/17 06:44:50;;;;;;;7.43;5.10;;;;;;;24.71;72.22;100384.94;4995523;28;20570;-70
2022/08/17 06:47:28;;;;;;;6.57;5.00;;;;;;;24.89;73.42;100376.22;5006500;28;20197;-69
2022/08/17 06:50:02;;;;;;;4.35;3.95;;;;;;;25.02;71.03;100382.16;4998935;28;20698;-70
2022/08/17 06:52:33;;;;;;;6.38;4.55;;;;;;;25.14;67.93;100385.53;4977883;28;20228;-72
2022/08/17 06:55:05;;;;;;;4.20;3.80;;;;;;;25.20;66.70;100384.13;4983078;28;20217;-73
2022/08/17 06:57:36;;;;;;;4.60;3.78;;;;;;;25.28;68.72;100385.13;4984761;28;20209;-72
2022/08/17 07:00:07;;;;;;;4.95;4.47;;;;;;;25.36;63.12;100389.75;4985240;28;20216;-72
2022/08/17 07:02:45;;;;;;;5.70;4.28;;;;;;;25.35;62.12;100389.88;4982827;28;20216;-72
2022/08/17 07:05:13;;;;;;;5.75;4.47;;;;;;;25.38;60.92;100385.13;4986301;28;20228;-73
2022/08/17 07:08:02;;;;;;;5.40;4.63;;;;;;;25.38;62.54;100385.13;4987290;28;20225;-73
2022/08/17 07:10:35;;;;;;;6.30;5.00;;;;;;;25.46;61.58;100387.91;5006642;28;20329;-72
2022/08/17 07:13:25;;;;;;;6.35;5.32;;;;;;;25.55;61.78;100386.22;4988934;28;20312;-74
2022/08/17 07:15:59;;;;;;;6.63;5.45;;;;;;;25.61;64.72;100380.31;4988089;28;20205;-72
2022/08/17 07:18:31;;;;;;;7.43;5.60;;;;;;;25.63;63.07;100381.00;4985675;28;20271;-73
2022/08/17 07:21:03;;;;;;;7.15;5.50;;;;;;;25.72;62.50;100381.97;4982879;28;20213;-72
2022/08/17 07:23:38;;;;;;;6.50;5.53;;;;;;;25.81;60.94;100383.78;4986359;28;20208;-73
2022/08/17 07:26:05;;;;;;;8.63;5.90;;;;;;;25.89;60.69;100381.22;4984994;28;20205;-73
2022/08/17 07:28:35;;;;;;;7.72;5.20;;;;;;;26.00;62.01;100384.75;4991050;28;20216;-73
2022/08/17 07:31:04;;;;;;;5.28;4.63;;;;;;;26.10;58.19;100388.19;4998932;28;20670;-72
2022/08/17 07:33:35;;;;;;;7.88;5.07;;;;;;;26.20;58.91;100381.00;4984852;28;20247;-73
2022/08/17 07:36:02;;;;;;;7.20;4.82;;;;;;;26.24;59.43;100377.06;4981268;28;20201;-72
2022/08/17 07:38:30;;;;;;;4.93;4.43;;;;;;;26.26;58.48;100377.75;4982766;28;20216;-73
2022/08/17 07:41:03;;;;;;;6.63;4.43;;;;;;;26.34;56.27;100379.66;4984058;28;20234;-72
2022/08/17 07:43:35;;;;;;;5.22;4.30;;;;;;;26.41;56.24;100379.91;4980234;28;20670;-72
2022/08/17 07:49:17;;;;;;;5.10;4.45;;;;;;;26.46;57.38;100380.31;4986798;28;20456;-72
2022/08/17 07:51:58;;;;;;;5.10;4.40;;;;;;;26.47;58.60;100376.63;4988176;28;20594;-73
2022/08/17 07:54:29;;;;;;;5.03;4.53;;;;;;;26.51;58.04;100377.16;4987641;28;20304;-73
2022/08/17 07:56:59;;;;;;;4.40;3.65;;;;;;;26.67;56.36;100380.06;4981086;28;20927;-72
2022/08/17 07:59:30;;;;;;;4.55;3.92;;;;;;;26.84;55.34;100381.06;4988334;28;20193;-73
2022/08/17 08:02:24;;;;;;;4.30;3.85;;;;;;;27.04;55.81;100378.28;4987672;28;20221;-72
2022/08/17 08:05:00;;;;;;;5.22;4.03;;;;;;;27.20;54.03;100387.28;4980290;28;20209;-73
2022/08/17 08:07:30;;;;;;;4.70;3.42;;;;;;;27.38;50.16;100389.94;4977477;28;20561;-72
2022/08/17 08:10:04;;;;;;;5.05;3.38;;;;;;;27.42;50.30;100387.81;4977418;28;20251;-73
2022/08/17 08:12:33;;;;;;;4.10;3.63;;;;;;;27.51;48.64;100388.72;4972401;28;20275;-73
2022/08/17 08:15:09;;;;;;;4.60;3.70;;;;;;;27.61;48.92;100393.97;4974637;28;20209;-73
2022/08/17 08:17:48;;;;;;;7.47;3.60;;;;;;;27.79;48.54;100391.25;4975010;28;20206;-73
2022/08/17 08:20:15;;;;;;;4.18;3.50;;;;;;;27.93;47.55;100396.03;4976938;28;20229;-72
2022/08/17 08:22:52;;;;;;;4.28;3.63;;;;;;;28.03;48.10;100387.91;4975999;28;20284;-73
2022/08/17 08:25:26;;;;;;;4.68;3.67;;;;;;;28.16;47.24;100388.28;4974873;28;20201;-72
2022/08/17 08:28:12;;;;;;;4.18;3.30;;;;;;;28.30;45.62;100393.06;4973078;28;20198;-72
2022/08/17 08:30:47;;;;;;;3.53;3.22;;;;;;;28.39;45.64;100385.03;4973931;28;20230;-74
2022/08/17 08:33:28;;;;;;;3.40;3.10;;;;;;;28.53;47.29;100392.50;4975097;28;20311;-73
2022/08/17 08:36:02;;;;;;;3.97;3.53;;;;;;;28.70;45.83;100390.69;4975231;28;20202;-73
2022/08/17 08:38:45;;;;;;;3.35;3.05;;;;;;;28.74;48.31;100383.16;4973633;28;20209;-73
2022/08/17 08:41:28;;;;;;;4.13;3.47;;;;;;;28.86;44.70;100374.63;4973659;28;20904;-73
2022/08/17 08:44:07;;;;;;;3.75;3.10;;;;;;;28.95;42.81;100380.84;4974611;28;20201;-73
2022/08/17 08:46:49;;;;;;;4.85;2.80;;;;;;;29.05;42.68;100375.34;4973925;28;20212;-73
2022/08/17 08:49:37;;;;;;;3.83;3.30;;;;;;;29.20;43.79;100371.03;4974722;28;20205;-72
2022/08/17 08:52:13;;;;;;;3.97;3.58;;;;;;;29.25;43.19;100378.56;4972751;28;20253;-72
2022/08/17 08:54:46;;;;;;;4.43;3.13;;;;;;;29.29;41.91;100373.69;5001426;28;20216;-72
2022/08/17 08:57:17;;;;;;;3.15;2.85;;;;;;;29.34;43.02;100374.88;4983613;28;20205;-73
2022/08/17 08:59:56;;;;;;;3.42;3.13;;;;;;;29.28;41.40;100372.84;4982364;28;20205;-72
2022/08/17 09:02:46;;;;;;;4.72;2.38;;;;;;;29.24;41.16;100379.56;4983471;28;20527;-73
2022/08/17 09:05:24;;;;;;;3.38;2.55;;;;;;;29.46;40.87;100378.03;4980015;28;20686;-72
2022/08/17 09:07:59;;;;;;;4.30;2.70;;;;;;;29.65;41.44;100376.84;4980998;28;20311;-74
2022/08/17 09:10:30;;;;;;;2.75;2.38;;;;;;;29.81;41.22;100379.56;4976441;28;20235;-73
2022/08/17 09:13:05;;;;;;;2.65;2.45;;;;;;;29.92;39.91;100386.41;4982675;28;20300;-72
2022/08/17 09:15:37;;;;;;;4.10;2.92;;;;;;;30.12;40.64;100381.47;4973853;28;20547;-73
2022/08/17 09:18:10;;;;;;;4.25;2.47;;;;;;;30.20;40.56;100376.06;4987026;28;20393;-73
2022/08/17 09:20:43;;;;;;;2.45;2.25;;;;;;;30.21;40.97;100382.25;4972489;28;20448;-73
2022/08/17 09:23:16;;;;;;;3.08;2.45;;;;;;;30.27;41.01;100373.50;4973326;28;20288;-72
2022/08/17 09:25:51;;;;;;;2.53;2.30;;;;;;;30.36;39.22;100366.25;4973939;28;20206;-73
2022/08/17 09:28:20;;;;;;;4.38;2.28;;;;;;;30.44;40.38;100368.91;4986150;28;20225;-73
2022/08/17 09:30:50;;;;;;;2.80;2.40;;;;;;;30.47;37.53;100381.19;4975001;28;20351;-72
2022/08/17 09:33:24;;;;;;;2.55;2.03;;;;;;;30.53;37.39;100367.00;4986938;28;20218;-73
2022/08/17 09:35:55;;;;;;;2.83;2.00;;;;;;;30.72;37.20;100371.13;4973321;28;20738;-71
2022/08/17 09:38:28;;;;;;;2.63;2.42;;;;;;;30.85;39.10;100370.50;4973909;28;20843;-71
2022/08/17 09:41:05;;;;;;;2.90;2.70;;;;;;;30.89;37.13;100370.00;4971417;28;20229;-73
2022/08/17 09:43:38;;;;;;;3.20;2.90;;;;;;;30.85;39.28;100360.56;4988157;28;20215;-71
2022/08/17 09:46:11;;;;;;;2.78;2.45;;;;;;;30.78;41.37;100356.94;4978115;28;20212;-71
2022/08/17 09:48:45;;;;;;;2.95;2.67;;;;;;;30.75;42.25;100365.38;4981420;28;20213;-71
2022/08/17 09:51:17;;;;;;;3.65;2.92;;;;;;;30.80;39.02;100372.91;4974095;28;20222;-72
2022/08/17 09:53:44;;;;;;;4.05;2.80;;;;;;;30.55;40.40;100359.59;4974082;28;20220;-72
2022/08/17 09:56:29;;;;;;;3.33;2.58;;;;;;;30.36;40.80;100352.81;4974883;28;20202;-71
2022/08/17 09:59:17;;;;;;;3.67;2.78;;;;;;;30.39;40.73;100349.78;4977795;28;20208;-71
2022/08/17 10:01:49;;;;;;;3.13;2.80;;;;;;;30.52;38.12;100363.50;4979643;28;20228;-71
2022/08/17 10:04:31;;;;;;;2.80;2.50;;;;;;;30.50;37.38;100357.47;4981144;28;20628;-71
2022/08/17 10:07:05;;;;;;;2.83;2.50;;;;;;;30.75;39.10;100357.31;5010514;28;20700;-71
2022/08/17 10:09:54;;;;;;;3.28;2.78;;;;;;;30.97;39.70;100354.81;4973691;28;20227;-71
2022/08/17 10:12:33;;;;;;;3.83;2.65;;;;;;;31.01;41.10;100348.06;4971200;28;20224;-72
2022/08/17 10:15:14;;;;;;;2.85;2.55;;;;;;;31.07;41.01;100350.03;4972484;28;20213;-71
2022/08/17 10:17:52;;;;;;;2.65;2.20;;;;;;;31.20;37.76;100350.25;4975053;28;20208;-72
2022/08/17 10:20:25;;;;;;;2.65;2.40;;;;;;;31.28;38.31;100358.25;4984759;28;20224;-71
2022/08/17 10:28:43;;;;;;;2.72;2.42;;;;;;;31.23;38.95;100351.75;4987280;28;20545;-72
2022/08/17 10:31:20;;;;;;;2.67;2.47;;;;;;;31.34;38.69;100351.31;4972692;28;20224;-71
2022/08/17 10:33:58;;;;;;;2.42;2.22;;;;;;;31.39;38.70;100359.66;4974818;28;20225;-72
2022/08/17 10:36:36;;;;;;;2.70;2.50;;;;;;;31.30;39.40;100352.69;4974057;28;20206;-72
2022/08/17 10:39:10;;;;;;;3.55;2.72;;;;;;;31.48;39.59;100355.03;4975941;28;20230;-72
2022/08/17 10:41:42;;;;;;;3.13;2.83;;;;;;;31.65;37.13;100361.97;4974537;28;20494;-71
2022/08/17 10:44:18;;;;;;;2.47;2.28;;;;;;;31.60;35.39;100358.16;4980292;28;20805;-71
2022/08/17 10:46:54;;;;;;;2.40;2.20;;;;;;;31.62;34.97;100353.44;4982070;28;20224;-72
2022/08/17 10:49:33;;;;;;;2.10;1.90;;;;;;;31.71;33.93;100363.09;4977151;28;20271;-71
2022/08/17 10:52:04;;;;;;;2.30;2.10;;;;;;;31.70;33.37;100370.34;4986000;28;20197;-72
2022/08/17 10:54:49;;;;;;;2.40;2.20;;;;;;;31.67;39.11;100361.78;4984321;28;20213;-71
2022/08/17 10:57:40;;;;;;;2.40;2.20;;;;;;;31.58;38.53;100352.13;4979438;28;20215;-71
2022/08/17 11:00:13;;;;;;;2.40;2.20;;;;;;;31.59;37.20;100359.19;4982540;28;20602;-71
2022/08/17 11:02:47;;;;;;;2.47;2.00;;;;;;;31.69;38.25;100348.97;4982046;28;20197;-71
2022/08/17 11:05:34;;;;;;;2.17;1.98;;;;;;;31.79;38.13;100349.53;4987894;28;20201;-72
2022/08/17 11:08:22;;;;;;;3.17;2.33;;;;;;;31.84;33.65;100354.38;4980014;28;20224;-71
2022/08/17 11:11:07;;;;;;;2.03;1.88;;;;;;;31.85;37.97;100356.03;4981949;28;20232;-72
2022/08/17 11:13:43;;;;;;;2.65;2.10;;;;;;;31.73;38.67;100339.47;4983113;28;20220;-71
2022/08/17 11:16:28;;;;;;;2.38;2.08;;;;;;;31.55;38.29;100345.25;4985463;28;20208;-71
2022/08/17 11:19:35;;;;;;;2.05;1.90;;;;;;;31.41;39.41;100333.38;4985128;28;20201;-71
2022/08/17 11:22:19;;;;;;;2.25;2.05;;;;;;;31.50;39.90;100344.94;4984839;28;20193;-71
2022/08/17 11:24:50;;;;;;;2.13;1.90;;;;;;;31.43;40.29;100342.13;4983147;28;20563;-71
2022/08/17 11:27:25;;;;;;;2.20;2.00;;;;;;;31.50;36.03;100343.13;4977295;28;20285;-71
2022/08/17 11:29:53;;;;;;;3.13;2.20;;;;;;;31.55;40.57;100336.31;4983977;28;20304;-71
2022/08/17 11:32:37;;;;;;;2.17;2.00;;;;;;;31.62;37.34;100338.09;4985915;28;20211;-71
2022/08/17 11:35:29;;;;;;;2.50;2.20;;;;;;;31.74;34.64;100335.78;4989363;28;20201;-71
2022/08/17 11:38:09;;;;;;;2.20;2.00;;;;;;;31.82;36.22;100338.38;4980615;28;20232;-72
2022/08/17 11:41:09;;;;;;;2.83;2.30;;;;;;;31.87;36.53;100343.19;4978003;28;20232;-71
2022/08/17 11:44:09;;;;;;;4.22;2.28;;;;;;;31.97;37.27;100341.06;4985414;28;20205;-72
2022/08/17 11:52:40;;;;;;;2.30;2.10;;;;;;;32.30;33.16;100332.59;4974399;28;20210;-71
2022/08/17 11:55:11;;;;;;;2.83;2.05;;;;;;;32.12;32.32;100332.16;4978661;28;20779;-71
2022/08/17 11:58:26;;;;;;;2.05;1.85;;;;;;;32.13;33.14;100328.44;4980865;28;20622;-71
2022/08/17 12:00:57;;;;;;;3.17;2.50;;;;;;;32.11;33.83;100330.50;4974282;28;20225;-71
2022/08/17 12:03:41;;;;;;;2.05;1.90;;;;;;;32.08;32.47;100337.94;4974807;28;20190;-71
2022/08/17 12:06:18;;;;;;;2.30;2.10;;;;;;;31.94;32.54;100332.50;4972110;28;20264;-72
2022/08/17 12:08:50;;;;;;;2.03;1.83;;;;;;;32.04;34.32;100323.16;4970953;28;20206;-71
2022/08/17 12:11:23;;;;;;;2.47;2.28;;;;;;;32.10;36.19;100318.84;4978778;28;20217;-71
2022/08/17 12:13:54;;;;;;;2.40;2.20;;;;;;;32.24;33.83;100319.84;4981421;28;20214;-71
2022/08/17 12:16:22;;;;;;;2.17;1.98;;;;;;;32.22;33.00;100313.81;4986138;28;20303;-71